createdAt,value
2018-02-21T00:02:34.407Z,42.65
2018-02-21T00:05:05.105Z,41.50
2018-02-21T00:07:39.016Z,41.70
2018-02-21T00:10:13.602Z,39.83
2018-02-21T00:12:43.662Z,40.72
2018-02-21T00:15:13.410Z,41.58
2018-02-21T00:17:43.322Z,41.60
2018-02-21T00:20:44.292Z,43.10
2018-02-21T00:23:23.768Z,41.72
2018-02-21T00:25:57.359Z,41.10
2018-02-21T00:28:28.200Z,43.70
2018-02-21T00:30:59.665Z,43.13
2018-02-21T00:33:29.705Z,42.90
2018-02-21T00:36:06.937Z,43.78
2018-02-21T00:38:38.866Z,42.38
2018-02-21T00:41:10.497Z,44.78
2018-02-21T00:43:41.511Z,44.50
2018-02-21T00:46:11.138Z,44.70
2018-02-21T00:49:10.380Z,42.80
2018-02-21T00:51:42.489Z,41.28
2018-02-21T00:54:19.355Z,41.80
2018-02-21T00:59:30.910Z,40.10
2018-02-21T01:02:03.798Z,41.80
2018-02-21T01:04:37.006Z,42.70
2018-02-21T01:07:10.592Z,43.00
2018-02-21T01:09:47.450Z,44.92
2018-02-21T01:12:27.814Z,42.38
2018-02-21T01:14:58.328Z,43.47
2018-02-21T01:17:52.562Z,44.72
2018-02-21T01:21:02.377Z,43.95
2018-02-21T01:23:32.964Z,46.28
2018-02-21T01:26:28.880Z,45.95
2018-02-21T01:30:37.006Z,45.45
2018-02-21T01:33:08.755Z,44.72
2018-02-21T01:36:38.610Z,45.38
2018-02-21T01:44:55.411Z,47.35
2018-02-21T01:47:27.643Z,46.58
2018-02-21T01:50:00.883Z,46.17
2018-02-21T01:53:05.855Z,44.95
2018-02-21T01:55:39.993Z,43.90
2018-02-21T01:58:14.207Z,44.97
2018-02-21T02:01:51.110Z,47.15
2018-02-21T02:04:22.418Z,43.55
2018-02-21T02:06:52.323Z,44.80
2018-02-21T02:09:31.123Z,44.30
2018-02-21T02:13:03.330Z,46.72
2018-02-21T02:15:43.166Z,45.72
2018-02-21T02:18:13.377Z,43.75
2018-02-21T02:20:43.300Z,44.20
2018-02-21T02:23:28.175Z,45.75
2018-02-21T02:26:01.360Z,43.38
2018-02-21T02:28:31.515Z,45.55
2018-02-21T02:31:02.588Z,45.97
2018-02-21T02:33:39.436Z,44.05
2018-02-21T02:36:12.181Z,44.88
2018-02-21T02:38:44.149Z,45.30
2018-02-21T02:41:15.491Z,45.45
2018-02-21T02:43:45.945Z,45.40
2018-02-21T02:46:16.452Z,45.05
2018-02-21T02:48:46.605Z,45.65
2018-02-21T02:51:16.326Z,45.58
2018-02-21T02:53:46.957Z,46.10
2018-02-21T02:56:17.134Z,43.92
2018-02-21T02:58:47.289Z,42.65
2018-02-21T03:01:17.780Z,45.63
2018-02-21T03:03:49.875Z,44.75
2018-02-21T03:06:20.195Z,44.03
2018-02-21T03:08:49.707Z,42.92
2018-02-21T03:11:20.508Z,41.28
2018-02-21T03:13:51.594Z,40.85
2018-02-21T03:16:21.470Z,41.37
2018-02-21T03:18:51.281Z,43.67
2018-02-21T03:21:24.352Z,41.90
2018-02-21T03:23:57.468Z,39.58
2018-02-21T03:26:28.139Z,43.03
2018-02-21T03:28:58.807Z,39.17
2018-02-21T03:31:44.269Z,40.65
2018-02-21T03:34:36.126Z,39.88
2018-02-21T03:37:06.280Z,38.42
2018-02-21T03:39:45.884Z,37.30
2018-02-21T03:42:19.369Z,38.20
2018-02-21T03:44:52.818Z,37.53
2018-02-21T03:47:25.089Z,37.28
2018-02-21T03:50:06.062Z,35.55
2018-02-21T03:52:38.633Z,33.60
2018-02-21T03:55:08.766Z,37.55
2018-02-21T03:57:48.384Z,36.35
2018-02-21T04:00:31.519Z,35.08
2018-02-21T04:03:03.688Z,34.38
2018-02-21T04:05:39.438Z,35.17
2018-02-21T04:08:10.589Z,34.75
2018-02-21T04:10:40.545Z,34.53
2018-02-21T04:13:12.481Z,33.85
2018-02-21T04:15:42.282Z,33.42
2018-02-21T04:18:12.076Z,35.30
2018-02-21T04:20:42.203Z,35.17
2018-02-21T04:23:11.609Z,34.15
2018-02-21T04:25:41.175Z,34.00
2018-02-21T04:28:11.476Z,32.00
2018-02-21T04:30:45.847Z,33.53
2018-02-21T04:33:15.119Z,31.55
2018-02-21T04:35:47.716Z,31.73
2018-02-21T04:38:17.307Z,32.60
2018-02-21T04:40:47.795Z,30.65
2018-02-21T04:43:54.391Z,30.42
2018-02-21T04:46:24.612Z,30.73
2018-02-21T04:49:07.449Z,31.60
2018-02-21T04:51:47.158Z,31.23
2018-02-21T04:54:17.121Z,31.45
2018-02-21T04:56:58.082Z,30.17
2018-02-21T04:59:28.849Z,32.15
2018-02-21T05:02:12.565Z,30.48
2018-02-21T05:04:44.806Z,30.75
2018-02-21T05:07:17.897Z,31.12
2018-02-21T05:09:48.526Z,31.40
2018-02-21T05:12:18.546Z,29.05
2018-02-21T05:14:49.274Z,30.50
2018-02-21T05:17:25.232Z,31.87
2018-02-21T05:20:00.626Z,31.33
2018-02-21T05:22:39.208Z,29.98
2018-02-21T05:25:09.928Z,30.62
2018-02-21T05:27:45.446Z,31.42
2018-02-21T05:30:28.233Z,30.75
2018-02-21T05:32:58.530Z,29.33
2018-02-21T05:35:37.975Z,29.73
2018-02-21T05:38:27.572Z,27.98
2018-02-21T05:41:12.421Z,28.62
2018-02-21T05:43:46.440Z,29.25
2018-02-21T05:46:18.173Z,31.67
2018-02-21T05:49:59.369Z,30.98
2018-02-21T05:52:36.426Z,27.58
2018-02-21T05:55:17.552Z,30.02
2018-02-21T05:58:02.685Z,29.00
2018-02-21T06:00:33.326Z,28.90
2018-02-21T06:03:17.032Z,27.98
2018-02-21T06:05:47.394Z,27.13
2018-02-21T06:08:19.468Z,26.87
2018-02-21T06:10:50.297Z,26.33
2018-02-21T06:13:58.849Z,26.62
2018-02-21T06:22:27.176Z,26.83
2018-02-21T06:24:57.009Z,27.30
2018-02-21T06:28:10.407Z,27.90
2018-02-21T06:31:04.497Z,28.55
2018-02-21T06:34:18.237Z,27.37
2018-02-21T06:37:08.806Z,28.25
2018-02-21T06:40:08.661Z,29.08
2018-02-21T06:49:46.377Z,27.13
2018-02-21T06:53:00.474Z,29.30
2018-02-21T06:59:12.642Z,22.75
2018-02-21T07:01:58.439Z,26.33
2018-02-21T07:04:54.851Z,26.62
2018-02-21T07:07:42.684Z,26.37
2018-02-21T07:10:22.946Z,26.40
2018-02-21T07:13:02.412Z,26.65
2018-02-21T07:15:43.112Z,26.62
2018-02-21T07:18:15.851Z,25.75
2018-02-21T07:20:47.695Z,25.73
2018-02-21T07:23:17.874Z,27.02
2018-02-21T07:29:27.275Z,25.48
2018-02-21T07:31:59.954Z,26.42
2018-02-21T07:34:43.146Z,26.00
2018-02-21T07:37:15.947Z,26.45
2018-02-21T07:39:57.369Z,24.60
2018-02-21T07:42:33.969Z,27.80
2018-02-21T07:45:04.940Z,24.77
2018-02-21T07:47:35.789Z,25.00
2018-02-21T07:51:56.088Z,24.15
2018-02-21T07:58:37.178Z,22.30
2018-02-21T08:01:07.999Z,23.27
2018-02-21T08:03:38.536Z,23.55
2018-02-21T08:06:18.823Z,23.25
2018-02-21T08:08:52.123Z,22.55
2018-02-21T08:11:25.583Z,22.17
2018-02-21T08:13:58.653Z,22.80
2018-02-21T08:16:33.716Z,21.35
2018-02-21T08:19:11.116Z,22.42
2018-02-21T08:21:46.437Z,22.40
2018-02-21T08:24:50.872Z,23.92
2018-02-21T08:27:37.494Z,22.58
2018-02-21T08:30:11.096Z,28.15
2018-02-21T08:32:45.800Z,22.42
2018-02-21T08:35:39.104Z,24.37
2018-02-21T08:39:11.236Z,22.48
2018-02-21T08:41:42.469Z,21.23
2018-02-21T08:44:12.898Z,22.65
2018-02-21T08:46:43.771Z,22.10
2018-02-21T08:49:29.987Z,22.95
2018-02-21T08:51:59.316Z,22.47
2018-02-21T08:54:39.806Z,16.63
2018-02-21T08:57:16.924Z,23.40
2018-02-21T08:59:59.046Z,21.98
2018-02-21T09:03:06.513Z,22.80
2018-02-21T09:05:44.002Z,22.33
2018-02-21T09:08:39.130Z,23.12
2018-02-21T09:11:12.515Z,23.23
2018-02-21T09:13:56.611Z,23.87
2018-02-21T09:16:39.138Z,25.02
2018-02-21T09:19:10.162Z,25.23
2018-02-21T09:21:43.711Z,25.02
2018-02-21T09:24:15.904Z,24.85
2018-02-21T09:26:52.683Z,24.83
2018-02-21T09:29:53.327Z,25.50
2018-02-21T09:32:39.628Z,24.67
2018-02-21T09:35:11.661Z,23.55
2018-02-21T09:38:14.129Z,25.37
2018-02-21T09:40:45.749Z,22.65
2018-02-21T09:43:17.069Z,24.02
2018-02-21T09:45:52.553Z,23.77
2018-02-21T09:58:16.785Z,23.20
2018-02-21T10:01:06.017Z,21.35
2018-02-21T10:03:47.831Z,23.70
2018-02-21T10:06:33.010Z,22.20
2018-02-21T10:09:25.496Z,22.00
2018-02-21T10:11:58.461Z,22.58
2018-02-21T10:15:07.194Z,23.45
2018-02-21T10:17:50.805Z,18.55
2018-02-21T10:27:44.906Z,18.92
2018-02-21T10:30:23.859Z,21.92
2018-02-21T10:32:55.088Z,22.30
2018-02-21T10:35:43.543Z,21.00
2018-02-21T10:38:16.654Z,21.08
2018-02-21T10:40:47.539Z,20.67
2018-02-21T10:43:24.525Z,21.40
2018-02-21T10:45:59.910Z,20.00
2018-02-21T10:48:31.042Z,20.67
2018-02-21T10:51:30.313Z,20.23
2018-02-21T10:54:18.899Z,19.10
2018-02-21T10:57:12.962Z,17.33
2018-02-21T10:59:58.766Z,20.37
2018-02-21T11:02:35.177Z,20.83
2018-02-21T11:05:33.322Z,17.23
2018-02-21T11:08:49.820Z,13.73
2018-02-21T11:11:29.966Z,15.43
2018-02-21T11:14:01.988Z,17.50
2018-02-21T11:16:32.413Z,20.73
2018-02-21T11:19:14.210Z,20.30
2018-02-21T11:21:53.447Z,20.73
2018-02-21T11:27:36.181Z,20.10
2018-02-21T11:30:07.210Z,20.20
2018-02-21T11:32:41.180Z,20.83
2018-02-21T11:35:23.658Z,17.30
2018-02-21T11:38:02.662Z,19.03
2018-02-21T11:40:53.057Z,20.33
2018-02-21T11:43:23.990Z,20.17
2018-02-21T11:45:57.958Z,19.33
2018-02-21T11:48:29.713Z,19.67
2018-02-21T11:51:21.217Z,20.13
2018-02-21T11:54:44.049Z,19.80
2018-02-21T11:57:42.646Z,19.30
2018-02-21T12:00:27.060Z,19.30
2018-02-21T12:03:10.745Z,20.27
2018-02-21T12:09:30.915Z,19.03
2018-02-21T12:12:13.308Z,18.60
2018-02-21T12:14:44.560Z,19.97
2018-02-21T12:25:19.936Z,19.07
2018-02-21T12:27:51.230Z,20.47
2018-02-21T12:33:55.177Z,17.10
2018-02-21T12:37:03.881Z,15.03
2018-02-21T12:40:37.709Z,19.40
2018-02-21T12:43:16.584Z,18.07
2018-02-21T12:45:52.202Z,18.90
2018-02-21T12:48:53.695Z,18.67
2018-02-21T12:51:55.597Z,18.23
2018-02-21T12:54:51.060Z,18.67
2018-02-21T13:00:25.266Z,18.83
2018-02-21T13:03:15.689Z,18.43
2018-02-21T13:19:05.507Z,18.30
2018-02-21T13:21:56.083Z,20.77
2018-02-21T13:25:07.518Z,18.42
2018-02-21T13:27:45.297Z,19.67
2018-02-21T13:37:34.259Z,18.73
2018-02-21T14:24:21.221Z,19.25
2018-02-21T14:30:33.060Z,19.00
2018-02-21T14:33:46.831Z,17.23
2018-02-21T14:37:26.266Z,18.90
2018-02-21T14:40:23.223Z,18.80
2018-02-21T15:20:02.425Z,17.87
2018-02-21T16:01:28.641Z,24.33
2018-02-21T16:05:22.660Z,21.23
2018-02-21T16:07:59.506Z,24.08
2018-02-21T16:31:43.082Z,25.23
2018-02-21T18:01:01.091Z,25.10
2018-02-21T20:15:21.854Z,19.05
2018-02-21T20:17:56.289Z,18.80
2018-02-21T22:10:32.467Z,14.40
2018-02-21T22:13:08.393Z,14.87
2018-02-21T22:23:29.480Z,12.50
2018-02-21T22:26:12.052Z,14.27
2018-02-21T22:28:49.962Z,13.88
2018-02-21T22:31:59.043Z,13.73
2018-02-21T22:34:33.616Z,13.70
2018-02-21T22:45:05.008Z,13.55
2018-02-21T22:47:45.934Z,12.65
2018-02-21T22:50:25.469Z,12.45
2018-02-21T22:53:01.617Z,12.77
2018-02-21T22:55:36.964Z,13.10
2018-02-21T22:58:13.793Z,14.75
2018-02-21T23:01:02.912Z,14.15
2018-02-21T23:03:41.133Z,13.88
2018-02-21T23:06:11.556Z,13.95
2018-02-21T23:08:51.007Z,13.55
2018-02-21T23:11:26.840Z,13.52
2018-02-21T23:13:57.232Z,13.18
2018-02-21T23:16:29.570Z,14.05
2018-02-21T23:26:47.266Z,12.15
2018-02-21T23:33:34.124Z,12.15
2018-02-21T23:36:04.792Z,11.30
2018-02-21T23:38:38.150Z,13.90
2018-02-21T23:41:10.709Z,12.88
2018-02-21T23:43:44.143Z,12.23
2018-02-21T23:46:18.596Z,12.68
2018-02-21T23:55:21.416Z,11.93
2018-02-21T23:57:51.728Z,13.48
